^^
Datos históricos de la estación: Murcia-Puente Tocinos
Diario Informe para Septiembre 30, 2019 Unidades:  Ingés    Métrico   Ambas
Diario Semanal Mensual Anual
  Máxima: Mínima: Promedio:
Temperatura: 90.1 °F 74.3 °F 81 °F
Punto de rocio: 70 °F 58.1 °F 66.9 °F
Humedad: 84% 35.4% 64%
Velocidad viento: 13mph 0mph 6mph
Racha viento: 23.5mph - -
Viento- - ESE
Presión: 29.9 in 29.8 in -
Precipitación: 0 in    
 
 
Tabla de datos para Septiembre 30, 2019
Hora Temperatura Punto de rocio Presión Viento Velocidad viento Racha viento Humedad Intensidad lluvia(por hora) Nubes
00:04 77.4 °F 69.6 °F 29.8 in NE 6.9 mph 10.7 mph 77% 0 in
00:09 77.4 °F 69.8 °F 29.8 in NE 6.7 mph 11 mph 77.6% 0 in
00:14 77.2 °F 69.8 °F 29.8 in NE 6.2 mph 10 mph 78% 0 in
00:19 77.2 °F 69.8 °F 29.8 in NE 6.1 mph 9.7 mph 78% 0 in
00:24 77 °F 69.6 °F 29.8 in NE 5.9 mph 10.4 mph 78% 0 in
00:29 76.8 °F 69.8 °F 29.8 in NE 6 mph 11.5 mph 78.9% 0 in
00:34 76.8 °F 69.8 °F 29.8 in NE 6.2 mph 12 mph 79% 0 in
00:39 76.6 °F 69.6 °F 29.8 in NNE 6.1 mph 12 mph 79.1% 0 in
00:44 76.6 °F 70 °F 29.8 in NNE 5.9 mph 11.4 mph 80% 0 in
00:49 76.5 °F 69.8 °F 29.8 in NE 6 mph 12 mph 80% 0 in
00:54 76.3 °F 69.8 °F 29.8 in NE 6.2 mph 12 mph 80.1% 0 in
00:59 76.3 °F 70 °F 29.8 in NE 6.1 mph 12.7 mph 81% 0 in
01:04 76.1 °F 69.8 °F 29.8 in NE 5.9 mph 13 mph 81% 0 in
01:09 75.9 °F 69.8 °F 29.8 in NE 5.7 mph 9 mph 81% 0 in
01:14 75.9 °F 69.6 °F 29.8 in NE 5.4 mph 8.7 mph 81% 0 in
01:19 75.9 °F 69.8 °F 29.8 in NE 5.4 mph 9.2 mph 81.4% 0 in
01:24 75.7 °F 70 °F 29.8 in NE 5.4 mph 9.2 mph 82% 0 in
01:29 75.7 °F 70 °F 29.8 in NE 5.4 mph 9.2 mph 82% 0 in
01:34 75.6 °F 69.8 °F 29.8 in NE 5.4 mph 10.4 mph 82% 0 in
01:39 75.6 °F 70 °F 29.8 in NNE 5.4 mph 10 mph 82.9% 0 in
01:44 75.6 °F 70 °F 29.8 in NE 5.4 mph 9.2 mph 83% 0 in
01:49 75.4 °F 70 °F 29.8 in NNE 5.2 mph 9 mph 83% 0 in
01:54 75.4 °F 69.8 °F 29.8 in NNE 4.7 mph 7 mph 83% 0 in
01:59 75.2 °F 69.6 °F 29.8 in NNE 4.3 mph 6 mph 83% 0 in
02:04 75.2 °F 69.6 °F 29.8 in NNE 3.6 mph 6.2 mph 83% 0 in
02:09 75.2 °F 69.6 °F 29.8 in NNE 3.4 mph 6 mph 83% 0 in
02:14 75 °F 69.4 °F 29.8 in NNE 2.9 mph 5 mph 83% 0 in
02:19 75 °F 69.4 °F 29.8 in NE 2.7 mph 5 mph 83% 0 in
02:24 75 °F 69.4 °F 29.8 in NNE 2.4 mph 5 mph 83% 0 in
02:29 75 °F 69.4 °F 29.8 in NNE 2.4 mph 5 mph 83% 0 in
02:34 75 °F 69.4 °F 29.8 in North 2.4 mph 4 mph 83% 0 in
02:39 75 °F 69.4 °F 29.8 in NNO 2.2 mph 4 mph 83% 0 in
02:44 75 °F 69.6 °F 29.8 in NO 1.8 mph 4 mph 83% 0 in
02:49 75 °F 69.4 °F 29.8 in NNO 1.2 mph   83% 0 in
02:54 75 °F 69.6 °F 29.8 in Calm     83% 0 in
02:59 75.2 °F 69.6 °F 29.8 in Calm   4.6 mph 83% 0 in
03:04 75.2 °F 69.6 °F 29.8 in Calm   5.2 mph 83% 0 in
03:09 75.2 °F 69.8 °F 29.8 in NO 0.6 mph 5 mph 83% 0 in
03:14 75.4 °F 69.8 °F 29.8 in ONO 1.8 mph 5 mph 83% 0 in
03:19 75.4 °F 69.8 °F 29.8 in ONO 1.9 mph 4.7 mph 83% 0 in
03:24 75.2 °F 70 °F 29.8 in Oeste 2 mph 5 mph 83.7% 0 in
03:29 75.2 °F 70 °F 29.8 in OSO 1.9 mph 5 mph 84% 0 in
03:34 75.2 °F 69.6 °F 29.8 in NO 1.8 mph 4 mph 83.2% 0 in
03:39 75 °F 69.8 °F 29.8 in Oeste 1.9 mph 4.6 mph 83.8% 0 in
03:44 75 °F 70 °F 29.8 in ONO 2 mph 5 mph 84% 0 in
03:49 75.2 °F 69.6 °F 29.8 in Oeste 1.9 mph 3.6 mph 83.1% 0 in
03:54 75 °F 69.6 °F 29.8 in Oeste 1.8 mph 4 mph 83.2% 0 in
03:59 75.2 °F 70 °F 29.8 in Oeste 1.1 mph   84% 0 in
04:04 75.2 °F 70 °F 29.8 in Calm     84% 0 in
04:09 75.2 °F 70 °F 29.8 in Calm   4.7 mph 83.8% 0 in
04:14 75.2 °F 69.6 °F 29.8 in Calm   5 mph 83% 0 in
04:19 75 °F 69.3 °F 29.8 in SE 0.9 mph 5 mph 82.2% 0 in
04:24 75.2 °F 69.3 °F 29.8 in SSE 2.9 mph 5.8 mph 81.9% 0 in
04:29 75 °F 68.9 °F 29.8 in SSE 3.1 mph 6 mph 81% 0 in
04:34 75 °F 68.9 °F 29.8 in Sur 3.6 mph 7.4 mph 81% 0 in
04:39 75.2 °F 69.1 °F 29.8 in Sur 3.7 mph 7 mph 81% 0 in
04:44 75.2 °F 69.1 °F 29.8 in Sur 4 mph 7 mph 81% 0 in
04:49 75.2 °F 68.9 °F 29.8 in Sur 4 mph 5.9 mph 80.6% 0 in
04:54 75.4 °F 68.7 °F 29.8 in SSO 4 mph 6.9 mph 80% 0 in
04:59 75.4 °F 68.7 °F 29.8 in SSO 3.9 mph 7.6 mph 79.8% 0 in
05:04 75.4 °F 68.4 °F 29.8 in SO 3.6 mph 8.1 mph 79% 0 in
05:09 75.6 °F 68.5 °F 29.8 in SSO 3.4 mph 8 mph 79% 0 in
05:14 75.6 °F 68.5 °F 29.8 in SO 3.1 mph 5.2 mph 78.8% 0 in
05:19 75.6 °F 68.2 °F 29.8 in OSO 2.9 mph 6 mph 78% 0 in
05:24 75.6 °F 68.4 °F 29.8 in SO 2.4 mph 5 mph 78% 0 in
05:29 75.7 °F 68.4 °F 29.8 in SO 2.2 mph 5 mph 78% 0 in
05:34 75.7 °F 68.4 °F 29.8 in SO 1.8 mph 3.5 mph 78% 0 in
05:39 75.6 °F 68 °F 29.8 in SO 1.2 mph 3 mph 77.4% 0 in
05:44 75.6 °F 68.2 °F 29.8 in Calm   3.6 mph 78% 0 in
05:49 75.4 °F 68 °F 29.8 in Oeste 0.6 mph 4 mph 78% 0 in
05:54 75 °F 67.8 °F 29.8 in Oeste 1.8 mph 3 mph 78% 0 in
05:59 75 °F 67.6 °F 29.8 in Oeste 1.2 mph 3 mph 78% 0 in
06:04 74.8 °F 67.5 °F 29.8 in Calm   2 mph 78% 0 in
06:09 74.8 °F 67.5 °F 29.8 in Calm   1.4 mph 78% 0 in
06:14 74.8 °F 67.5 °F 29.8 in Calm   4.6 mph 78% 0 in
06:19 74.8 °F 67.5 °F 29.8 in OSO 0.6 mph 5 mph 78% 0 in
06:24 74.8 °F 67.5 °F 29.8 in OSO 1.8 mph 5 mph 78% 0 in
06:29 74.8 °F 67.5 °F 29.8 in SO 2.2 mph 6.9 mph 78% 0 in
06:34 74.8 °F 67.3 °F 29.8 in SSO 2.9 mph 7 mph 77.5% 0 in
06:39 74.8 °F 67.3 °F 29.8 in SSO 3.3 mph 6.2 mph 77.6% 0 in
06:44 74.7 °F 66.9 °F 29.8 in SSO 4 mph 6.9 mph 77% 0 in
06:49 74.7 °F 66.9 °F 29.8 in SSO 4.2 mph 7.4 mph 77% 0 in
06:54 74.7 °F 67.1 °F 29.8 in Sur 4.7 mph 7 mph 77.6% 0 in
06:59 74.7 °F 66.9 °F 29.8 in SSO 4.5 mph 8.1 mph 77% 0 in
07:04 74.5 °F 66.7 °F 29.8 in SSO 4.3 mph 8 mph 77% 0 in
07:09 74.3 °F 66.6 °F 29.8 in OSO 4.2 mph 6.9 mph 77% 0 in
07:14 74.3 °F 66.6 °F 29.8 in OSO 4 mph 7 mph 77% 0 in
07:19 74.3 °F 66.6 °F 29.8 in SO 3.7 mph 6 mph 77% 0 in
07:24 74.3 °F 66.6 °F 29.8 in Oeste 3.1 mph 5 mph 77% 0 in
07:29 74.5 °F 66.7 °F 29.8 in Oeste 2.9 mph 4.6 mph 77% 0 in
07:34 74.5 °F 66.7 °F 29.8 in Oeste 2.4 mph 5 mph 77% 0 in
07:39 74.5 °F 66.7 °F 29.8 in Oeste 2.2 mph 4 mph 77% 0 in
07:44 74.5 °F 66.7 °F 29.8 in Oeste 1.8 mph 3 mph 77% 0 in
07:49 74.7 °F 66.9 °F 29.8 in Oeste 1.2 mph   77% 0 in
07:54 74.7 °F 66.9 °F 29.8 in Calm     77% 0 in
07:59 74.7 °F 67.1 °F 29.8 in Calm     77% 0 in
08:04 74.8 °F 66.9 °F 29.8 in Calm     76.4% 0 in
08:09 75.2 °F 67.1 °F 29.8 in Calm     76.1% 0 in
08:14 75.6 °F 67.1 °F 29.8 in Calm   4.7 mph 75.2% 0 in
08:19 75.7 °F 67.1 °F 29.8 in SSO 0.6 mph 5 mph 74.4% 0 in
08:24 75.9 °F 66.9 °F 29.8 in SSO 2 mph 7.4 mph 74% 0 in
08:29 75.9 °F 67.3 °F 29.8 in SSO 2.7 mph 7 mph 75% 0 in
08:34 75.7 °F 67.3 °F 29.8 in SSO 4 mph 8.1 mph 75% 0 in
08:39 75.7 °F 67.1 °F 29.8 in SSO 4.4 mph 8.1 mph 75% 0 in
08:44 75.7 °F 67.3 °F 29.8 in SSO 5.2 mph 8 mph 75% 0 in
08:49 75.9 °F 67.3 °F 29.9 in SSO 4.8 mph 7 mph 74.7% 0 in
08:54 76.3 °F 67.5 °F 29.9 in Sur 4 mph 6.2 mph 74% 0 in
08:59 76.6 °F 67.3 °F 29.9 in Sur 4 mph 6.9 mph 73.1% 0 in
09:04 76.8 °F 67.3 °F 29.9 in SSO 4 mph 7 mph 72.4% 0 in
09:09 77.2 °F 67.3 °F 29.9 in SSO 3.9 mph 7.4 mph 71.7% 0 in
09:14 77.4 °F 67.1 °F 29.9 in OSO 3.6 mph 7 mph 71% 0 in
09:19 77.5 °F 67.3 °F 29.9 in SO 3.4 mph 5.2 mph 70.8% 0 in
09:24 77.9 °F 67.1 °F 29.9 in SSO 2.9 mph 5 mph 69.6% 0 in
09:29 78.3 °F 67.1 °F 29.9 in Oeste 2.6 mph 5 mph 68.4% 0 in
09:34 78.6 °F 66.7 °F 29.9 in SO 2 mph 5.2 mph 67% 0 in
09:39 79 °F 66.6 °F 29.9 in SO 2.3 mph 5.9 mph 66% 0 in
09:44 79.2 °F 66.6 °F 29.9 in OSO 2.9 mph 6 mph 65.4% 0 in
09:49 79.5 °F 66.4 °F 29.9 in Sur 2.7 mph 5 mph 64.4% 0 in
09:54 79.9 °F 66.2 °F 29.9 in Sur 2.4 mph 5 mph 63% 0 in
09:59 80.2 °F 66.2 °F 29.9 in SSO 2.5 mph 5.2 mph 62.3% 0 in
10:04 80.8 °F 65.8 °F 29.9 in SSO 2.9 mph 5.9 mph 60.4% 0 in
10:09 81.1 °F 65.1 °F 29.9 in SSO 3 mph 6 mph 58.4% 0 in
10:14 81.3 °F 64 °F 29.9 in SO 3.1 mph 6.2 mph 55.9% 0 in
10:19 81.7 °F 63.3 °F 29.9 in OSO 3.1 mph 6 mph 53.6% 0 in
10:24 82.2 °F 63.1 °F 29.9 in ONO 3.1 mph 5 mph 52.5% 0 in
10:29 82.9 °F 63.3 °F 29.9 in SSO 2.7 mph 5.2 mph 51.7% 0 in
10:34 83.5 °F 62.6 °F 29.9 in SSO 1.8 mph 6.4 mph 49.5% 0 in
10:39 84 °F 62.1 °F 29.9 in SSO 2 mph 7 mph 47.8% 0 in
10:44 84.2 °F 61.7 °F 29.9 in SSO 2.4 mph 7 mph 46.7% 0 in
10:49 84.6 °F 61.2 °F 29.9 in Sur 2.6 mph 6.2 mph 45.7% 0 in
10:54 84.7 °F 61.5 °F 29.9 in SSO 3.1 mph 6 mph 45.8% 0 in
10:59 85.5 °F 61.3 °F 29.9 in North 2.5 mph 3 mph 44.6% 0 in
11:04 86.5 °F 61 °F 29.9 in ENE 1.4 mph 4.6 mph 42.4% 0 in
11:09 87.3 °F 60.6 °F 29.9 in Este 1.6 mph 5 mph 41% 0 in
11:14 87.8 °F 60.6 °F 29.9 in NE 2 mph 5 mph 40.2% 0 in
11:19 88.3 °F 60.1 °F 29.9 in North 2 mph 5 mph 38.7% 0 in
11:24 88.5 °F 59.5 °F 29.9 in Este 2 mph 6.9 mph 37.8% 0 in
11:29 88.5 °F 58.5 °F 29.9 in ENE 2.4 mph 7 mph 36.4% 0 in
11:34 88.3 °F 58.1 °F 29.9 in Este 3.1 mph 6 mph 36.1% 0 in
11:39 88.3 °F 58.3 °F 29.9 in ENE 3.2 mph 6.9 mph 36.2% 0 in
11:44 88.7 °F 58.8 °F 29.9 in NE 3.6 mph 7 mph 36.7% 0 in
11:49 89.1 °F 58.8 °F 29.9 in NE 3.6 mph 11.5 mph 36.1% 0 in
11:54 89.1 °F 58.1 °F 29.9 in ENE 3.6 mph 12 mph 35.4% 0 in
11:59 88.9 °F 59.5 °F 29.9 in NE 4.4 mph 11.8 mph 37.5% 0 in
12:04 88.5 °F 59.7 °F 29.9 in ENE 5.9 mph 12 mph 38% 0 in
12:09 88.7 °F 59.9 °F 29.9 in NE 5.9 mph 13.8 mph 38.1% 0 in
12:14 88.3 °F 60.3 °F 29.9 in NE 5.9 mph 14 mph 39.1% 0 in
12:19 88.5 °F 61.2 °F 29.9 in NE 6.1 mph 14 mph 40.1% 0 in
12:24 88.7 °F 60.8 °F 29.9 in NE 6.4 mph 12 mph 39.3% 0 in
12:29 89.1 °F 60.8 °F 29.9 in NE 6.2 mph 12 mph 38.9% 0 in
12:34 89.1 °F 61.3 °F 29.9 in NE 5.9 mph 10.4 mph 39.6% 0 in
12:39 89.1 °F 61.7 °F 29.9 in NNE 6 mph 12.7 mph 40% 0 in
12:44 89.2 °F 61 °F 29.9 in NE 6.2 mph 14.5 mph 39% 0 in
12:49 89.1 °F 61.2 °F 29.9 in NE 6.6 mph 15 mph 39.4% 0 in
12:54 89.4 °F 62.6 °F 29.9 in NE 7.6 mph 15 mph 40.9% 0 in
12:59 89.8 °F 62.8 °F 29.9 in NE 7.8 mph 15 mph 41% 0 in
13:04 90 °F 64 °F 29.9 in NE 8.1 mph 14 mph 42.5% 0 in
13:09 90.1 °F 66.6 °F 29.9 in ENE 8.1 mph 19 mph 45.9% 0 in
13:14 89.6 °F 68 °F 29.9 in ENE 8.1 mph 21.9 mph 49.2% 0 in
13:19 89.1 °F 68.2 °F 29.9 in NE 8.9 mph 22 mph 50.2% 0 in
13:24 88.5 °F 68 °F 29.9 in ENE 10.7 mph 17 mph 50.7% 0 in
13:29 88.2 °F 67.6 °F 29.9 in ENE 10.7 mph 19.6 mph 51% 0 in
13:34 88 °F 68 °F 29.9 in ENE 10.7 mph 20 mph 52% 0 in
13:39 87.8 °F 68.7 °F 29.9 in NE 10.4 mph 18.5 mph 53.3% 0 in
13:44 87.4 °F 68.9 °F 29.9 in NE 10 mph 19.7 mph 54.4% 0 in
13:49 87.3 °F 69.1 °F 29.9 in ENE 10 mph 20 mph 55% 0 in
13:54 87.4 °F 69.3 °F 29.9 in ENE 10 mph 17 mph 54.9% 0 in
13:59 87.4 °F 68.7 °F 29.9 in ENE 9.9 mph 20.7 mph 54.1% 0 in
14:04 87.1 °F 68.4 °F 29.9 in NE 9.7 mph 21 mph 53.7% 0 in
14:09 87.3 °F 68.2 °F 29.9 in NE 9.9 mph 21 mph 53.3% 0 in
14:14 87.1 °F 68.2 °F 29.9 in NE 10.2 mph 19.2 mph 53.6% 0 in
14:19 86.9 °F 68.5 °F 29.9 in NE 10.6 mph 23 mph 54.6% 0 in
14:24 86.4 °F 68.7 °F 29.9 in NE 11.4 mph 23 mph 55.7% 0 in
14:29 87.1 °F 68.4 °F 29.9 in NE 11.4 mph 21 mph 53.9% 0 in
14:34 87.1 °F 68 °F 29.9 in NE 11.4 mph 20 mph 53.3% 0 in
14:39 87.1 °F 67.3 °F 29.9 in NE 11.9 mph 19 mph 52.1% 0 in
14:44 87.1 °F 66.4 °F 29.9 in NE 13 mph 19.2 mph 50.3% 0 in
14:49 87.1 °F 65.1 °F 29.9 in NE 12.6 mph 20 mph 48.2% 0 in
14:54 87.3 °F 64.9 °F 29.9 in NE 11.8 mph 20 mph 47.7% 0 in
14:59 87.4 °F 64.9 °F 29.9 in NE 11.2 mph 22.3 mph 47.3% 0 in
15:04 87.4 °F 65.3 °F 29.9 in ENE 10 mph 22 mph 47.9% 0 in
15:09 87.4 °F 65.1 °F 29.9 in ENE 10.2 mph 22 mph 47.8% 0 in
15:14 87.4 °F 65.1 °F 29.9 in NE 10.7 mph 22 mph 47.7% 0 in
15:19 87.4 °F 64.9 °F 29.9 in NE 10.9 mph 22 mph 47.4% 0 in
15:24 87.6 °F 64.9 °F 29.9 in NE 11.2 mph 21 mph 47% 0 in
15:29 87.6 °F 65.1 °F 29.9 in NE 11.2 mph 21.3 mph 47.3% 0 in
15:34 87.4 °F 65.3 °F 29.9 in NE 11.2 mph 22.3 mph 47.9% 0 in
15:39 87.4 °F 65.3 °F 29.9 in NE 11.8 mph 22 mph 48% 0 in
15:44 87.3 °F 65.3 °F 29.9 in NE 13 mph 22.3 mph 48.1% 0 in
15:49 87.1 °F 65.3 °F 29.9 in NE 13 mph 22 mph 48.8% 0 in
15:54 87.3 °F 65.8 °F 29.9 in NE 13 mph 22.5 mph 49.2% 0 in
15:59 87.1 °F 65.8 °F 29.9 in ENE 12.8 mph 23 mph 49.4% 0 in
16:04 87.6 °F 65.5 °F 29.9 in ENE 12.5 mph 21 mph 48% 0 in
16:09 87.6 °F 64.9 °F 29.9 in NE 11.9 mph 21.5 mph 47.2% 0 in
16:14 87.4 °F 65.5 °F 29.9 in ENE 10.7 mph 22 mph 48.2% 0 in
16:19 87.6 °F 65.8 °F 29.9 in NE 10.1 mph 20.1 mph 48.5% 0 in
16:24 87.4 °F 64.4 °F 29.9 in ENE 8.7 mph 21 mph 46.4% 0 in
16:29 87.4 °F 64.8 °F 29.9 in NE 9.3 mph 17.3 mph 46.8% 0 in
16:34 87.6 °F 64.8 °F 29.9 in ENE 10.7 mph 17.3 mph 46.6% 0 in
16:39 87.4 °F 65.3 °F 29.9 in NE 10.6 mph 19 mph 47.8% 0 in
16:44 87.4 °F 64.9 °F 29.9 in ENE 10.2 mph 19.2 mph 47.3% 0 in
16:49 87.6 °F 65.3 °F 29.9 in NE 10.2 mph 20 mph 47.6% 0 in
16:54 87.4 °F 64.4 °F 29.9 in NE 10.2 mph 20.8 mph 46.6% 0 in
16:59 86.9 °F 64.8 °F 29.9 in NE 10.6 mph 21 mph 47.9% 0 in
17:04 87.4 °F 64.9 °F 29.9 in ENE 11.4 mph 19.7 mph 47.3% 0 in
17:09 87.3 °F 65.1 °F 29.8 in NE 11.6 mph 20.8 mph 47.9% 0 in
17:14 87.3 °F 65.3 °F 29.8 in NE 11.8 mph 21 mph 48.4% 0 in
17:19 87.1 °F 65.3 °F 29.8 in NE 11.4 mph 23.5 mph 48.5% 0 in
17:24 86.7 °F 65.1 °F 29.8 in NE 10.7 mph 23 mph 48.8% 0 in
17:29 86.9 °F 65.3 °F 29.8 in ENE 11.2 mph 21.9 mph 49% 0 in
17:34 86.9 °F 65.5 °F 29.9 in ENE 12.3 mph 22 mph 49% 0 in
17:39 86.9 °F 65.3 °F 29.9 in ENE 11.6 mph 18.4 mph 49% 0 in
17:44 86.9 °F 65.5 °F 29.9 in NE 10.2 mph 20.7 mph 49.2% 0 in
17:49 86.5 °F 65.7 °F 29.9 in ENE 10.2 mph 21 mph 50% 0 in
17:54 86.4 °F 65.7 °F 29.9 in NE 10.2 mph 19 mph 50.2% 0 in
17:59 86.4 °F 66 °F 29.9 in ENE 10.8 mph 20.8 mph 51% 0 in
18:04 86.4 °F 66 °F 29.9 in ENE 11.8 mph 21.5 mph 51% 0 in
18:09 86.4 °F 66.4 °F 29.8 in NE 10.7 mph 22 mph 51.6% 0 in
18:14 85.8 °F 66.4 °F 29.8 in ENE 8.5 mph 21 mph 52.2% 0 in
18:19 85.8 °F 66.2 °F 29.8 in ENE 8.7 mph 16.8 mph 52.2% 0 in
18:24 85.8 °F 65.8 °F 29.8 in NE 9.2 mph 17.3 mph 51.2% 0 in
18:29 86 °F 65.8 °F 29.8 in ENE 9.2 mph 18.5 mph 51.3% 0 in
18:34 85.6 °F 65.8 °F 29.8 in ENE 9.2 mph 19 mph 51.8% 0 in
18:39 85.5 °F 65.8 °F 29.8 in ENE 9.7 mph 20.7 mph 52% 0 in
18:44 85.5 °F 65.5 °F 29.8 in NE 10.7 mph 21 mph 51.4% 0 in
18:49 85.5 °F 65.7 °F 29.8 in NE 9.8 mph 20 mph 51.5% 0 in
18:54 85.6 °F 65.5 °F 29.8 in ENE 8.1 mph 18.5 mph 51.2% 0 in
18:59 85.5 °F 65.8 °F 29.8 in NE 8.1 mph 19 mph 52% 0 in
19:04 84.9 °F 64.9 °F 29.8 in NE 8.1 mph 18.4 mph 51.3% 0 in
19:09 84.7 °F 65.1 °F 29.8 in ENE 8.9 mph 18.4 mph 52% 0 in
19:14 84.9 °F 64.9 °F 29.8 in NE 10.7 mph 18.5 mph 51.4% 0 in
19:19 84.9 °F 65.3 °F 29.8 in ENE 10.2 mph 19 mph 51.9% 0 in
19:24 84.7 °F 65.1 °F 29.8 in NE 9.2 mph 17.5 mph 51.7% 0 in
19:29 84.6 °F 64.9 °F 29.8 in ENE 9.4 mph 17.5 mph 52% 0 in
19:34 84.4 °F 65.1 °F 29.9 in ENE 10 mph 19.7 mph 52.7% 0 in
19:39 84 °F 65.8 °F 29.9 in NE 9.5 mph 20 mph 54.6% 0 in
19:44 83.8 °F 66.2 °F 29.9 in ENE 8.5 mph 18.4 mph 55.7% 0 in
19:49 83.7 °F 67.1 °F 29.9 in ENE 8.4 mph 18 mph 57.8% 0 in
19:54 83.5 °F 67.8 °F 29.9 in NE 8.1 mph 16.3 mph 59.7% 0 in
19:59 82.9 °F 67.6 °F 29.9 in NE 8.8 mph 20.7 mph 60% 0 in
20:04 82.6 °F 67.5 °F 29.9 in NE 10 mph 21 mph 60.4% 0 in
20:09 82.6 °F 67.3 °F 29.9 in NE 9.8 mph 16 mph 60.1% 0 in
20:14 82.6 °F 67.8 °F 29.9 in NE 9.2 mph 14 mph 61% 0 in
20:19 82.4 °F 67.5 °F 29.9 in NE 8.7 mph 17.3 mph 60.7% 0 in
20:24 82 °F 66.7 °F 29.9 in NE 7.6 mph 17.8 mph 60% 0 in
20:29 81.9 °F 66.7 °F 29.9 in NE 8.4 mph 18.4 mph 60.2% 0 in
20:34 81.7 °F 67.1 °F 29.9 in NE 10 mph 17.3 mph 61.4% 0 in
20:39 81.5 °F 67.6 °F 29.9 in NE 9.9 mph 17.3 mph 62.6% 0 in
20:44 81.3 °F 68 °F 29.9 in NE 9.7 mph 17 mph 64.1% 0 in
20:49 81.1 °F 68.5 °F 29.9 in NE 9.7 mph 17.3 mph 65.7% 0 in
20:54 81 °F 68.9 °F 29.9 in ENE 9.7 mph 17.3 mph 66.8% 0 in
20:59 81 °F 69.1 °F 29.9 in ENE 9.1 mph 13 mph 67% 0 in
21:04 80.8 °F 69.1 °F 29.9 in NE 8.1 mph 13 mph 67.5% 0 in
21:09 80.6 °F 69.1 °F 29.9 in NE 7.7 mph 12 mph 68% 0 in
21:14 80.4 °F 68.9 °F 29.9 in ENE 6.9 mph 12.7 mph 68% 0 in
21:19 80.2 °F 68.7 °F 29.9 in ENE 6.9 mph 13 mph 68% 0 in
21:24 80.2 °F 68.5 °F 29.9 in NE 6.9 mph 12.7 mph 68% 0 in
21:29 80.1 °F 68.5 °F 29.9 in NE 6.5 mph 13 mph 68% 0 in
21:34 80.1 °F 68.5 °F 29.9 in NE 5.9 mph 10.7 mph 68.2% 0 in
21:39 79.9 °F 68.9 °F 29.9 in NE 6.2 mph 14.7 mph 69.3% 0 in
21:44 79.9 °F 69.1 °F 29.9 in NE 6.9 mph 15 mph 70.1% 0 in
21:49 79.5 °F 69.4 °F 29.9 in NE 7.5 mph 15.2 mph 71.1% 0 in
21:54 79.3 °F 69.6 °F 29.9 in NE 8.5 mph 15 mph 72% 0 in
21:59 79.2 °F 69.6 °F 29.9 in NE 8.6 mph 14 mph 72.5% 0 in
22:04 79.2 °F 69.6 °F 29.9 in NE 8.7 mph 14 mph 72.8% 0 in
22:09 79.2 °F 69.6 °F 29.9 in NE 8.7 mph 15 mph 72.7% 0 in
22:14 79 °F 69.6 °F 29.9 in NE 8.7 mph 15 mph 73% 0 in
22:19 79 °F 68.5 °F 29.9 in NE 8.3 mph 15 mph 70.2% 0 in
22:24 79 °F 67.5 °F 29.9 in NE 7.4 mph 12.7 mph 67.9% 0 in
22:29 79.2 °F 67.6 °F 29.9 in NE 7.2 mph 13 mph 67.8% 0 in
22:34 79.2 °F 67.6 °F 29.9 in NE 6.9 mph 13 mph 68% 0 in
22:39 79 °F 67.5 °F 29.9 in NE 6.9 mph 13 mph 68% 0 in
22:44 79 °F 67.5 °F 29.9 in NE 6.9 mph 11.5 mph 68% 0 in
22:49 79 °F 67.5 °F 29.9 in NE 6.6 mph 12 mph 68.1% 0 in
22:54 78.8 °F 67.8 °F 29.9 in NE 5.9 mph 11.4 mph 69% 0 in
22:59 78.8 °F 68 °F 29.9 in NE 5.7 mph 11 mph 69.5% 0 in
23:04 78.8 °F 68.2 °F 29.9 in NE 5.4 mph 9.7 mph 70% 0 in
23:09 78.6 °F 68.4 °F 29.9 in NE 5.6 mph 11.2 mph 71% 0 in
23:14 78.4 °F 68.5 °F 29.9 in NE 5.9 mph 12 mph 71.5% 0 in
23:19 78.4 °F 68.7 °F 29.9 in NE 6.1 mph 12 mph 72.2% 0 in
23:24 78.3 °F 68.9 °F 29.9 in NE 6.4 mph 10 mph 73% 0 in
23:29 78.3 °F 68.9 °F 29.9 in NE 6.3 mph 10.2 mph 73.3% 0 in
23:34 78.1 °F 69.1 °F 29.9 in NE 6.2 mph 10 mph 74% 0 in
23:39 78.1 °F 69.1 °F 29.9 in NE 5.8 mph 9.2 mph 74% 0 in
23:44 77.9 °F 69.3 °F 29.9 in NE 5.2 mph 9 mph 74.7% 0 in
23:49 77.9 °F 69.3 °F 29.9 in NE 4.9 mph 8.1 mph 75% 0 in
23:54 77.7 °F 69.4 °F 29.9 in NE 4.3 mph 8.1 mph 75.7% 0 in
23:59 77.7 °F 69.4 °F 29.9 in NE 4.3 mph 8 mph 76% 0 in
Murcia-Puente Tocinos, España
Compliments of Weather Underground - 3 mb

La estación de MeteoMurcia.com, publica sus datos en los siguientes proyectos:

Weather Underground PWS IMURCIAP2 Meteoclimatic www.awekas.at

W3Counter
Web Analytics